sensor_id;sensor_type;location;lat;lon;timestamp;temperature;humidity
12811;DHT22;6470;47.654;7.896;2022-09-03T00:02:23;11.90;99.90
12811;DHT22;6470;47.654;7.896;2022-09-03T00:05:04;15.70;99.90
12811;DHT22;6470;47.654;7.896;2022-09-03T00:08:05;15.90;99.90
12811;DHT22;6470;47.654;7.896;2022-09-03T00:14:18;15.50;99.90
12811;DHT22;6470;47.654;7.896;2022-09-03T00:16:57;15.80;99.90
12811;DHT22;6470;47.654;7.896;2022-09-03T00:19:27;15.10;99.90
12811;DHT22;6470;47.654;7.896;2022-09-03T00:21:59;15.50;99.90
12811;DHT22;6470;47.654;7.896;2022-09-03T00:24:30;15.10;99.90
12811;DHT22;6470;47.654;7.896;2022-09-03T00:27:02;14.90;99.90
12811;DHT22;6470;47.654;7.896;2022-09-03T00:29:39;16.10;99.90
12811;DHT22;6470;47.654;7.896;2022-09-03T00:33:08;16.10;99.90
12811;DHT22;6470;47.654;7.896;2022-09-03T00:35:43;16.30;99.90
12811;DHT22;6470;47.654;7.896;2022-09-03T00:38:12;15.20;99.90
12811;DHT22;6470;47.654;7.896;2022-09-03T00:40:44;15.70;99.90
12811;DHT22;6470;47.654;7.896;2022-09-03T00:43:39;15.40;99.90
12811;DHT22;6470;47.654;7.896;2022-09-03T00:46:51;15.70;99.90
12811;DHT22;6470;47.654;7.896;2022-09-03T00:49:45;15.30;99.90
12811;DHT22;6470;47.654;7.896;2022-09-03T00:55:06;11.90;99.90
12811;DHT22;6470;47.654;7.896;2022-09-03T00:57:37;15.80;99.90
12811;DHT22;6470;47.654;7.896;2022-09-03T01:00:18;16.00;99.90
12811;DHT22;6470;47.654;7.896;2022-09-03T01:05:33;15.90;99.90
12811;DHT22;6470;47.654;7.896;2022-09-03T01:10:34;15.60;99.90
12811;DHT22;6470;47.654;7.896;2022-09-03T01:13:27;15.50;99.90
12811;DHT22;6470;47.654;7.896;2022-09-03T01:24:28;15.70;99.90
12811;DHT22;6470;47.654;7.896;2022-09-03T01:29:45;14.60;99.90
12811;DHT22;6470;47.654;7.896;2022-09-03T01:32:30;16.00;99.90
12811;DHT22;6470;47.654;7.896;2022-09-03T01:40:27;15.70;99.90
12811;DHT22;6470;47.654;7.896;2022-09-03T01:43:31;15.50;99.90
12811;DHT22;6470;47.654;7.896;2022-09-03T01:46:18;15.50;99.90
12811;DHT22;6470;47.654;7.896;2022-09-03T01:49:43;15.70;99.90
12811;DHT22;6470;47.654;7.896;2022-09-03T01:51:41;15.30;99.90
12811;DHT22;6470;47.654;7.896;2022-09-03T01:54:31;11.90;99.90
12811;DHT22;6470;47.654;7.896;2022-09-03T01:57:21;16.10;99.90
12811;DHT22;6470;47.654;7.896;2022-09-03T02:00:00;15.50;99.90
12811;DHT22;6470;47.654;7.896;2022-09-03T02:07:27;15.60;99.90
12811;DHT22;6470;47.654;7.896;2022-09-03T02:09:59;15.50;99.90
12811;DHT22;6470;47.654;7.896;2022-09-03T02:12:27;15.40;99.90
12811;DHT22;6470;47.654;7.896;2022-09-03T02:14:54;16.00;99.90
12811;DHT22;6470;47.654;7.896;2022-09-03T02:17:20;16.10;99.90
12811;DHT22;6470;47.654;7.896;2022-09-03T02:22:12;16.10;99.90
12811;DHT22;6470;47.654;7.896;2022-09-03T02:24:38;15.00;99.90
12811;DHT22;6470;47.654;7.896;2022-09-03T02:27:04;15.20;99.90
12811;DHT22;6470;47.654;7.896;2022-09-03T02:29:30;15.60;99.90
12811;DHT22;6470;47.654;7.896;2022-09-03T02:34:23;15.40;99.90
12811;DHT22;6470;47.654;7.896;2022-09-03T02:36:49;15.70;99.90
12811;DHT22;6470;47.654;7.896;2022-09-03T02:39:15;16.10;99.90
12811;DHT22;6470;47.654;7.896;2022-09-03T02:41:41;15.90;99.90
12811;DHT22;6470;47.654;7.896;2022-09-03T02:44:29;16.00;99.90
12811;DHT22;6470;47.654;7.896;2022-09-03T02:47:01;15.90;99.90
12811;DHT22;6470;47.654;7.896;2022-09-03T02:49:27;16.20;99.90
12811;DHT22;6470;47.654;7.896;2022-09-03T02:52:08;16.30;99.90
12811;DHT22;6470;47.654;7.896;2022-09-03T02:54:37;15.70;99.90
12811;DHT22;6470;47.654;7.896;2022-09-03T02:57:13;16.20;99.90
12811;DHT22;6470;47.654;7.896;2022-09-03T02:59:41;15.00;99.90
12811;DHT22;6470;47.654;7.896;2022-09-03T03:02:09;15.60;99.90
12811;DHT22;6470;47.654;7.896;2022-09-03T03:04:36;12.20;99.90
12811;DHT22;6470;47.654;7.896;2022-09-03T03:07:02;15.40;99.90
12811;DHT22;6470;47.654;7.896;2022-09-03T03:09:28;15.80;99.90
12811;DHT22;6470;47.654;7.896;2022-09-03T03:11:54;16.10;99.90
12811;DHT22;6470;47.654;7.896;2022-09-03T03:14:20;15.70;99.90
12811;DHT22;6470;47.654;7.896;2022-09-03T03:16:47;15.20;99.90
12811;DHT22;6470;47.654;7.896;2022-09-03T03:19:13;15.50;99.90
12811;DHT22;6470;47.654;7.896;2022-09-03T03:21:39;16.00;99.90
12811;DHT22;6470;47.654;7.896;2022-09-03T03:24:05;16.20;99.90
12811;DHT22;6470;47.654;7.896;2022-09-03T03:26:31;15.70;99.90
12811;DHT22;6470;47.654;7.896;2022-09-03T03:28:59;15.10;99.90
12811;DHT22;6470;47.654;7.896;2022-09-03T03:31:25;15.50;99.90
12811;DHT22;6470;47.654;7.896;2022-09-03T03:33:53;16.20;99.90
12811;DHT22;6470;47.654;7.896;2022-09-03T03:36:20;16.00;99.90
12811;DHT22;6470;47.654;7.896;2022-09-03T03:38:47;11.90;99.90
12811;DHT22;6470;47.654;7.896;2022-09-03T03:41:18;15.10;99.90
12811;DHT22;6470;47.654;7.896;2022-09-03T03:43:46;15.70;99.90
12811;DHT22;6470;47.654;7.896;2022-09-03T03:46:11;16.10;99.90
12811;DHT22;6470;47.654;7.896;2022-09-03T03:48:37;16.00;99.90
12811;DHT22;6470;47.654;7.896;2022-09-03T03:51:06;15.90;99.90
12811;DHT22;6470;47.654;7.896;2022-09-03T03:53:33;15.80;99.90
12811;DHT22;6470;47.654;7.896;2022-09-03T03:56:02;16.10;99.90
12811;DHT22;6470;47.654;7.896;2022-09-03T03:58:29;16.20;99.90
12811;DHT22;6470;47.654;7.896;2022-09-03T04:01:04;16.10;99.90
12811;DHT22;6470;47.654;7.896;2022-09-03T04:03:30;13.00;99.90
12811;DHT22;6470;47.654;7.896;2022-09-03T04:05:56;16.20;99.90
12811;DHT22;6470;47.654;7.896;2022-09-03T04:08:24;16.30;99.90
12811;DHT22;6470;47.654;7.896;2022-09-03T04:10:50;16.20;99.90
12811;DHT22;6470;47.654;7.896;2022-09-03T04:13:16;16.40;99.90
12811;DHT22;6470;47.654;7.896;2022-09-03T04:15:42;15.80;99.90
12811;DHT22;6470;47.654;7.896;2022-09-03T04:18:08;15.50;99.90
12811;DHT22;6470;47.654;7.896;2022-09-03T04:20:37;15.50;99.90
12811;DHT22;6470;47.654;7.896;2022-09-03T04:23:04;15.50;99.90
12811;DHT22;6470;47.654;7.896;2022-09-03T04:25:30;16.40;99.90
12811;DHT22;6470;47.654;7.896;2022-09-03T04:27:56;16.30;99.90
12811;DHT22;6470;47.654;7.896;2022-09-03T04:30:22;16.20;99.90
12811;DHT22;6470;47.654;7.896;2022-09-03T04:32:50;16.10;99.90
12811;DHT22;6470;47.654;7.896;2022-09-03T04:35:25;16.50;99.90
12811;DHT22;6470;47.654;7.896;2022-09-03T04:37:51;16.00;99.90
12811;DHT22;6470;47.654;7.896;2022-09-03T04:40:19;16.00;99.90
12811;DHT22;6470;47.654;7.896;2022-09-03T04:42:45;16.10;99.90
12811;DHT22;6470;47.654;7.896;2022-09-03T04:45:11;15.30;99.90
12811;DHT22;6470;47.654;7.896;2022-09-03T04:47:40;16.50;99.90
12811;DHT22;6470;47.654;7.896;2022-09-03T04:52:33;16.20;99.90
12811;DHT22;6470;47.654;7.896;2022-09-03T04:57:25;16.10;99.90
12811;DHT22;6470;47.654;7.896;2022-09-03T04:59:51;15.80;99.90
12811;DHT22;6470;47.654;7.896;2022-09-03T05:02:16;16.00;99.90
12811;DHT22;6470;47.654;7.896;2022-09-03T05:04:42;16.00;99.90
12811;DHT22;6470;47.654;7.896;2022-09-03T05:07:08;16.10;99.90
12811;DHT22;6470;47.654;7.896;2022-09-03T05:09:33;15.90;99.90
12811;DHT22;6470;47.654;7.896;2022-09-03T05:11:59;16.10;99.90
12811;DHT22;6470;47.654;7.896;2022-09-03T05:14:25;15.80;99.90
12811;DHT22;6470;47.654;7.896;2022-09-03T05:16:51;12.80;99.90
12811;DHT22;6470;47.654;7.896;2022-09-03T05:19:17;15.90;99.90
12811;DHT22;6470;47.654;7.896;2022-09-03T05:21:43;15.90;99.90
12811;DHT22;6470;47.654;7.896;2022-09-03T05:24:08;15.90;99.90
12811;DHT22;6470;47.654;7.896;2022-09-03T05:26:37;15.80;99.90
12811;DHT22;6470;47.654;7.896;2022-09-03T05:29:05;16.20;99.90
12811;DHT22;6470;47.654;7.896;2022-09-03T05:31:37;16.00;99.90
12811;DHT22;6470;47.654;7.896;2022-09-03T05:34:04;15.70;99.90
12811;DHT22;6470;47.654;7.896;2022-09-03T05:36:35;15.80;99.90
12811;DHT22;6470;47.654;7.896;2022-09-03T05:39:01;16.30;99.90
12811;DHT22;6470;47.654;7.896;2022-09-03T05:41:28;15.70;99.90
12811;DHT22;6470;47.654;7.896;2022-09-03T05:43:55;15.40;99.90
12811;DHT22;6470;47.654;7.896;2022-09-03T05:46:24;13.20;99.90
12811;DHT22;6470;47.654;7.896;2022-09-03T05:49:00;15.50;99.90
12811;DHT22;6470;47.654;7.896;2022-09-03T05:51:27;16.20;99.90
12811;DHT22;6470;47.654;7.896;2022-09-03T05:53:53;13.20;99.90
12811;DHT22;6470;47.654;7.896;2022-09-03T05:56:22;16.60;99.90
12811;DHT22;6470;47.654;7.896;2022-09-03T05:58:51;15.80;99.90
12811;DHT22;6470;47.654;7.896;2022-09-03T06:01:30;15.70;99.90
12811;DHT22;6470;47.654;7.896;2022-09-03T06:04:01;16.20;99.90
12811;DHT22;6470;47.654;7.896;2022-09-03T06:06:29;16.30;99.90
12811;DHT22;6470;47.654;7.896;2022-09-03T06:09:01;15.80;99.90
12811;DHT22;6470;47.654;7.896;2022-09-03T06:11:29;15.70;99.90
12811;DHT22;6470;47.654;7.896;2022-09-03T06:13:59;15.90;99.90
12811;DHT22;6470;47.654;7.896;2022-09-03T06:16:31;15.90;99.90
12811;DHT22;6470;47.654;7.896;2022-09-03T06:18:57;16.70;99.90
12811;DHT22;6470;47.654;7.896;2022-09-03T06:21:23;15.60;99.90
12811;DHT22;6470;47.654;7.896;2022-09-03T06:23:50;13.20;99.90
12811;DHT22;6470;47.654;7.896;2022-09-03T06:26:17;16.30;99.90
12811;DHT22;6470;47.654;7.896;2022-09-03T06:28:44;16.70;99.90
12811;DHT22;6470;47.654;7.896;2022-09-03T06:31:11;15.80;99.90
12811;DHT22;6470;47.654;7.896;2022-09-03T06:33:39;16.30;99.90
12811;DHT22;6470;47.654;7.896;2022-09-03T06:36:07;15.70;99.90
12811;DHT22;6470;47.654;7.896;2022-09-03T06:38:34;16.40;99.90
12811;DHT22;6470;47.654;7.896;2022-09-03T06:41:05;16.40;99.90
12811;DHT22;6470;47.654;7.896;2022-09-03T06:43:35;16.60;99.90
12811;DHT22;6470;47.654;7.896;2022-09-03T06:46:04;16.70;99.90
12811;DHT22;6470;47.654;7.896;2022-09-03T06:48:32;16.40;99.90
12811;DHT22;6470;47.654;7.896;2022-09-03T06:51:06;17.40;99.90
12811;DHT22;6470;47.654;7.896;2022-09-03T06:53:34;17.20;99.90
12811;DHT22;6470;47.654;7.896;2022-09-03T06:56:08;17.50;99.90
12811;DHT22;6470;47.654;7.896;2022-09-03T06:58:39;17.50;99.90
12811;DHT22;6470;47.654;7.896;2022-09-03T07:01:08;17.60;99.90
12811;DHT22;6470;47.654;7.896;2022-09-03T07:03:35;18.20;99.90
12811;DHT22;6470;47.654;7.896;2022-09-03T07:06:02;17.50;99.90
12811;DHT22;6470;47.654;7.896;2022-09-03T07:08:30;17.50;99.90
12811;DHT22;6470;47.654;7.896;2022-09-03T07:11:01;17.80;99.90
12811;DHT22;6470;47.654;7.896;2022-09-03T07:13:29;15.10;99.90
12811;DHT22;6470;47.654;7.896;2022-09-03T07:16:03;18.40;99.90
12811;DHT22;6470;47.654;7.896;2022-09-03T07:18:30;18.80;99.90
12811;DHT22;6470;47.654;7.896;2022-09-03T07:21:01;18.20;99.90
12811;DHT22;6470;47.654;7.896;2022-09-03T07:23:28;15.50;99.90
12811;DHT22;6470;47.654;7.896;2022-09-03T07:25:56;18.60;99.90
12811;DHT22;6470;47.654;7.896;2022-09-03T07:28:22;18.90;99.90
12811;DHT22;6470;47.654;7.896;2022-09-03T07:30:50;16.30;99.90
12811;DHT22;6470;47.654;7.896;2022-09-03T07:35:42;19.80;99.90
12811;DHT22;6470;47.654;7.896;2022-09-03T07:38:08;17.10;99.90
12811;DHT22;6470;47.654;7.896;2022-09-03T07:40:34;20.20;99.90
12811;DHT22;6470;47.654;7.896;2022-09-03T07:43:00;20.00;99.90
12811;DHT22;6470;47.654;7.896;2022-09-03T07:47:55;19.20;99.90
12811;DHT22;6470;47.654;7.896;2022-09-03T07:50:21;19.70;99.90
12811;DHT22;6470;47.654;7.896;2022-09-03T07:52:47;20.40;99.90
12811;DHT22;6470;47.654;7.896;2022-09-03T07:55:13;19.60;99.90
12811;DHT22;6470;47.654;7.896;2022-09-03T08:00:06;19.70;99.90
12811;DHT22;6470;47.654;7.896;2022-09-03T08:02:35;20.10;99.90
12811;DHT22;6470;47.654;7.896;2022-09-03T08:05:01;19.50;99.90
12811;DHT22;6470;47.654;7.896;2022-09-03T08:07:30;19.80;99.90
12811;DHT22;6470;47.654;7.896;2022-09-03T08:09:56;19.60;99.90
12811;DHT22;6470;47.654;7.896;2022-09-03T08:12:22;19.50;99.90
12811;DHT22;6470;47.654;7.896;2022-09-03T08:14:48;20.10;99.90
12811;DHT22;6470;47.654;7.896;2022-09-03T08:17:14;19.50;99.90
12811;DHT22;6470;47.654;7.896;2022-09-03T08:22:07;19.20;99.90
12811;DHT22;6470;47.654;7.896;2022-09-03T08:24:32;18.80;99.90
12811;DHT22;6470;47.654;7.896;2022-09-03T08:27:00;19.30;99.90
12811;DHT22;6470;47.654;7.896;2022-09-03T08:29:25;19.30;99.90
12811;DHT22;6470;47.654;7.896;2022-09-03T08:31:52;18.90;99.90
12811;DHT22;6470;47.654;7.896;2022-09-03T08:34:18;19.90;99.90
12811;DHT22;6470;47.654;7.896;2022-09-03T08:36:45;19.50;99.90
12811;DHT22;6470;47.654;7.896;2022-09-03T08:39:12;20.40;99.90
12811;DHT22;6470;47.654;7.896;2022-09-03T08:47:47;19.90;99.90
12811;DHT22;6470;47.654;7.896;2022-09-03T08:55:55;19.20;99.90
12811;DHT22;6470;47.654;7.896;2022-09-03T08:58:26;19.40;99.90
12811;DHT22;6470;47.654;7.896;2022-09-03T09:18:13;17.10;99.90
12811;DHT22;6470;47.654;7.896;2022-09-03T09:20:48;17.10;99.90
12811;DHT22;6470;47.654;7.896;2022-09-03T09:24:06;17.00;99.90
12811;DHT22;6470;47.654;7.896;2022-09-03T09:26:19;16.80;99.90
12811;DHT22;6470;47.654;7.896;2022-09-03T09:28:57;16.80;99.90
12811;DHT22;6470;47.654;7.896;2022-09-03T09:31:26;16.30;99.90
12811;DHT22;6470;47.654;7.896;2022-09-03T09:33:52;17.50;99.90
12811;DHT22;6470;47.654;7.896;2022-09-03T09:36:18;17.10;99.90
12811;DHT22;6470;47.654;7.896;2022-09-03T09:38:45;17.10;99.90
12811;DHT22;6470;47.654;7.896;2022-09-03T09:41:20;17.20;99.90
12811;DHT22;6470;47.654;7.896;2022-09-03T09:43:58;16.30;99.90
12811;DHT22;6470;47.654;7.896;2022-09-03T09:46:26;17.20;99.90
12811;DHT22;6470;47.654;7.896;2022-09-03T09:48:57;16.60;99.90
12811;DHT22;6470;47.654;7.896;2022-09-03T09:51:25;16.60;99.90
12811;DHT22;6470;47.654;7.896;2022-09-03T09:54:14;16.30;99.90
12811;DHT22;6470;47.654;7.896;2022-09-03T09:56:45;16.40;99.90
12811;DHT22;6470;47.654;7.896;2022-09-03T09:59:13;16.40;99.90
12811;DHT22;6470;47.654;7.896;2022-09-03T10:01:43;16.10;99.90
12811;DHT22;6470;47.654;7.896;2022-09-03T10:04:22;17.30;99.90
12811;DHT22;6470;47.654;7.896;2022-09-03T10:09:40;14.40;99.90
12811;DHT22;6470;47.654;7.896;2022-09-03T10:18:02;17.40;99.90
12811;DHT22;6470;47.654;7.896;2022-09-03T10:20:54;17.30;99.90
12811;DHT22;6470;47.654;7.896;2022-09-03T10:23:27;16.90;99.90
12811;DHT22;6470;47.654;7.896;2022-09-03T10:26:09;16.70;99.90
12811;DHT22;6470;47.654;7.896;2022-09-03T10:28:39;17.00;99.90
12811;DHT22;6470;47.654;7.896;2022-09-03T10:37:02;17.80;99.90
12811;DHT22;6470;47.654;7.896;2022-09-03T10:42:36;17.30;99.90
12811;DHT22;6470;47.654;7.896;2022-09-03T10:50:13;18.10;99.90
12811;DHT22;6470;47.654;7.896;2022-09-03T10:55:41;17.80;99.90
12811;DHT22;6470;47.654;7.896;2022-09-03T11:01:00;17.80;99.90
12811;DHT22;6470;47.654;7.896;2022-09-03T11:06:09;18.10;99.90
12811;DHT22;6470;47.654;7.896;2022-09-03T11:11:30;18.90;99.90
12811;DHT22;6470;47.654;7.896;2022-09-03T11:16:46;18.90;99.90
12811;DHT22;6470;47.654;7.896;2022-09-03T11:19:18;19.80;99.90
12811;DHT22;6470;47.654;7.896;2022-09-03T11:21:45;20.30;99.90
12811;DHT22;6470;47.654;7.896;2022-09-03T11:24:24;19.80;99.90
12811;DHT22;6470;47.654;7.896;2022-09-03T11:30:05;20.70;99.90
12811;DHT22;6470;47.654;7.896;2022-09-03T11:32:51;21.40;99.90
12811;DHT22;6470;47.654;7.896;2022-09-03T11:38:04;20.80;99.90
12811;DHT22;6470;47.654;7.896;2022-09-03T11:40:38;21.40;99.90
12811;DHT22;6470;47.654;7.896;2022-09-03T11:43:23;21.60;99.90
12811;DHT22;6470;47.654;7.896;2022-09-03T11:46:02;20.80;99.90
12811;DHT22;6470;47.654;7.896;2022-09-03T11:48:48;20.90;99.90
12811;DHT22;6470;47.654;7.896;2022-09-03T11:51:33;20.90;99.90
12811;DHT22;6470;47.654;7.896;2022-09-03T11:54:03;21.10;99.90
12811;DHT22;6470;47.654;7.896;2022-09-03T11:56:30;20.60;99.90
12811;DHT22;6470;47.654;7.896;2022-09-03T12:04:15;21.00;99.90
12811;DHT22;6470;47.654;7.896;2022-09-03T12:12:19;21.20;99.90
12811;DHT22;6470;47.654;7.896;2022-09-03T12:19:57;22.10;99.90
12811;DHT22;6470;47.654;7.896;2022-09-03T12:22:26;23.20;99.90
12811;DHT22;6470;47.654;7.896;2022-09-03T12:25:07;22.50;99.90
12811;DHT22;6470;47.654;7.896;2022-09-03T12:27:33;23.40;99.90
12811;DHT22;6470;47.654;7.896;2022-09-03T12:30:00;23.20;99.90
12811;DHT22;6470;47.654;7.896;2022-09-03T12:32:29;22.90;99.90
12811;DHT22;6470;47.654;7.896;2022-09-03T12:34:57;23.20;99.90
12811;DHT22;6470;47.654;7.896;2022-09-03T12:37:25;23.10;99.90
12811;DHT22;6470;47.654;7.896;2022-09-03T12:39:53;23.50;99.90
12811;DHT22;6470;47.654;7.896;2022-09-03T12:42:28;23.50;99.90
12811;DHT22;6470;47.654;7.896;2022-09-03T12:44:55;23.60;99.90
12811;DHT22;6470;47.654;7.896;2022-09-03T12:47:24;23.20;99.90
12811;DHT22;6470;47.654;7.896;2022-09-03T12:49:51;22.70;99.90
12811;DHT22;6470;47.654;7.896;2022-09-03T12:52:30;22.90;99.90
12811;DHT22;6470;47.654;7.896;2022-09-03T12:57:35;23.00;99.90
12811;DHT22;6470;47.654;7.896;2022-09-03T13:00:07;23.70;99.90
12811;DHT22;6470;47.654;7.896;2022-09-03T13:05:32;22.70;99.90
12811;DHT22;6470;47.654;7.896;2022-09-03T13:08:01;23.80;99.90
12811;DHT22;6470;47.654;7.896;2022-09-03T13:10:36;23.90;99.90
12811;DHT22;6470;47.654;7.896;2022-09-03T13:13:17;24.60;99.90
12811;DHT22;6470;47.654;7.896;2022-09-03T13:15:59;24.00;99.90
12811;DHT22;6470;47.654;7.896;2022-09-03T13:32:01;24.30;99.90
12811;DHT22;6470;47.654;7.896;2022-09-03T13:34:35;24.30;99.90
12811;DHT22;6470;47.654;7.896;2022-09-03T13:42:50;24.30;99.90
12811;DHT22;6470;47.654;7.896;2022-09-03T13:45:43;23.70;99.90
12811;DHT22;6470;47.654;7.896;2022-09-03T13:48:20;23.40;99.90
12811;DHT22;6470;47.654;7.896;2022-09-03T13:51:46;23.60;99.90
12811;DHT22;6470;47.654;7.896;2022-09-03T13:54:18;24.60;99.90
12811;DHT22;6470;47.654;7.896;2022-09-03T14:00:11;23.40;99.90
12811;DHT22;6470;47.654;7.896;2022-09-03T14:05:42;23.70;99.90
12811;DHT22;6470;47.654;7.896;2022-09-03T14:14:03;20.90;99.90
12811;DHT22;6470;47.654;7.896;2022-09-03T14:17:02;20.80;99.90
12811;DHT22;6470;47.654;7.896;2022-09-03T14:19:45;23.10;99.90
12811;DHT22;6470;47.654;7.896;2022-09-03T14:22:23;23.70;99.90
12811;DHT22;6470;47.654;7.896;2022-09-03T14:24:51;20.60;99.90
12811;DHT22;6470;47.654;7.896;2022-09-03T14:27:27;23.00;99.90
12811;DHT22;6470;47.654;7.896;2022-09-03T14:30:01;22.30;99.90
12811;DHT22;6470;47.654;7.896;2022-09-03T14:32:42;22.80;99.90
12811;DHT22;6470;47.654;7.896;2022-09-03T14:40:47;23.00;99.90
12811;DHT22;6470;47.654;7.896;2022-09-03T14:49:03;23.90;99.90
12811;DHT22;6470;47.654;7.896;2022-09-03T15:00:17;23.60;99.90
12811;DHT22;6470;47.654;7.896;2022-09-03T15:03:10;23.90;99.90
12811;DHT22;6470;47.654;7.896;2022-09-03T15:08:32;23.90;99.90
12811;DHT22;6470;47.654;7.896;2022-09-03T15:11:03;23.80;99.90
12811;DHT22;6470;47.654;7.896;2022-09-03T15:13:44;23.40;99.90
12811;DHT22;6470;47.654;7.896;2022-09-03T15:16:35;22.20;99.90
12811;DHT22;6470;47.654;7.896;2022-09-03T15:30:13;23.40;99.90
12811;DHT22;6470;47.654;7.896;2022-09-03T15:43:25;22.60;99.90
12811;DHT22;6470;47.654;7.896;2022-09-03T15:46:04;22.10;99.90
12811;DHT22;6470;47.654;7.896;2022-09-03T15:48:55;22.30;99.90
12811;DHT22;6470;47.654;7.896;2022-09-03T15:51:31;22.20;99.90
12811;DHT22;6470;47.654;7.896;2022-09-03T15:54:18;21.90;99.90
12811;DHT22;6470;47.654;7.896;2022-09-03T15:57:00;21.50;99.90
12811;DHT22;6470;47.654;7.896;2022-09-03T15:59:31;21.20;99.90
12811;DHT22;6470;47.654;7.896;2022-09-03T16:02:25;22.00;99.90
12811;DHT22;6470;47.654;7.896;2022-09-03T16:07:47;22.20;99.90
12811;DHT22;6470;47.654;7.896;2022-09-03T16:10:15;22.60;99.90
12811;DHT22;6470;47.654;7.896;2022-09-03T16:13:02;23.10;99.90
12811;DHT22;6470;47.654;7.896;2022-09-03T16:15:41;23.30;99.90
12811;DHT22;6470;47.654;7.896;2022-09-03T16:18:26;23.80;99.90
12811;DHT22;6470;47.654;7.896;2022-09-03T16:26:14;23.50;99.90
12811;DHT22;6470;47.654;7.896;2022-09-03T16:36:47;22.50;99.90
12811;DHT22;6470;47.654;7.896;2022-09-03T16:56:36;21.60;99.90
12811;DHT22;6470;47.654;7.896;2022-09-03T17:15:04;20.00;99.90
12811;DHT22;6470;47.654;7.896;2022-09-03T17:20:41;19.70;99.90
12811;DHT22;6470;47.654;7.896;2022-09-03T17:40:02;20.10;99.90
12811;DHT22;6470;47.654;7.896;2022-09-03T17:46:04;19.50;99.90
12811;DHT22;6470;47.654;7.896;2022-09-03T17:48:52;19.70;99.90
12811;DHT22;6470;47.654;7.896;2022-09-03T17:57:21;18.60;99.90
12811;DHT22;6470;47.654;7.896;2022-09-03T18:00:05;18.80;99.90
12811;DHT22;6470;47.654;7.896;2022-09-03T18:02:51;16.20;99.90
12811;DHT22;6470;47.654;7.896;2022-09-03T18:05:56;18.10;99.90
12811;DHT22;6470;47.654;7.896;2022-09-03T18:09:02;18.30;99.90
12811;DHT22;6470;47.654;7.896;2022-09-03T18:11:39;18.30;99.90
12811;DHT22;6470;47.654;7.896;2022-09-03T18:14:27;18.30;99.90
12811;DHT22;6470;47.654;7.896;2022-09-03T18:20:07;18.20;99.90
12811;DHT22;6470;47.654;7.896;2022-09-03T18:26:08;18.00;99.90
12811;DHT22;6470;47.654;7.896;2022-09-03T18:29:46;17.60;99.90
12811;DHT22;6470;47.654;7.896;2022-09-03T18:32:09;17.90;99.90
12811;DHT22;6470;47.654;7.896;2022-09-03T18:34:54;17.30;99.90
12811;DHT22;6470;47.654;7.896;2022-09-03T18:37:38;18.10;99.90
12811;DHT22;6470;47.654;7.896;2022-09-03T18:40:51;17.30;99.90
12811;DHT22;6470;47.654;7.896;2022-09-03T18:43:56;17.20;99.90
12811;DHT22;6470;47.654;7.896;2022-09-03T18:46:55;17.10;99.90
12811;DHT22;6470;47.654;7.896;2022-09-03T18:50:03;17.10;99.90
12811;DHT22;6470;47.654;7.896;2022-09-03T18:52:54;17.30;99.90
12811;DHT22;6470;47.654;7.896;2022-09-03T19:01:40;16.20;99.90
12811;DHT22;6470;47.654;7.896;2022-09-03T19:04:52;17.30;99.90
12811;DHT22;6470;47.654;7.896;2022-09-03T19:08:00;17.50;99.90
12811;DHT22;6470;47.654;7.896;2022-09-03T19:11:24;17.40;99.90
12811;DHT22;6470;47.654;7.896;2022-09-03T19:14:02;17.50;99.90
12811;DHT22;6470;47.654;7.896;2022-09-03T19:17:04;17.50;99.90
12811;DHT22;6470;47.654;7.896;2022-09-03T19:20:01;16.90;99.90
12811;DHT22;6470;47.654;7.896;2022-09-03T19:22:48;17.20;99.90
12811;DHT22;6470;47.654;7.896;2022-09-03T19:25:32;17.10;99.90
12811;DHT22;6470;47.654;7.896;2022-09-03T19:28:17;14.00;99.90
12811;DHT22;6470;47.654;7.896;2022-09-03T19:37:19;16.80;99.90
12811;DHT22;6470;47.654;7.896;2022-09-03T19:40:39;16.50;99.90
12811;DHT22;6470;47.654;7.896;2022-09-03T19:43:38;16.20;99.90
12811;DHT22;6470;47.654;7.896;2022-09-03T19:55:35;16.60;99.90
12811;DHT22;6470;47.654;7.896;2022-09-03T19:58:23;16.10;99.90
12811;DHT22;6470;47.654;7.896;2022-09-03T20:01:09;17.20;99.90
12811;DHT22;6470;47.654;7.896;2022-09-03T20:03:55;13.60;99.90
12811;DHT22;6470;47.654;7.896;2022-09-03T20:06:39;16.60;99.90
12811;DHT22;6470;47.654;7.896;2022-09-03T20:09:29;17.50;99.90
12811;DHT22;6470;47.654;7.896;2022-09-03T20:12:16;16.30;99.90
12811;DHT22;6470;47.654;7.896;2022-09-03T20:14:44;16.50;99.90
12811;DHT22;6470;47.654;7.896;2022-09-03T20:20:11;16.50;99.90
12811;DHT22;6470;47.654;7.896;2022-09-03T20:25:35;14.00;99.90
12811;DHT22;6470;47.654;7.896;2022-09-03T20:36:07;16.90;99.90
12811;DHT22;6470;47.654;7.896;2022-09-03T20:39:04;16.80;99.90
12811;DHT22;6470;47.654;7.896;2022-09-03T20:41:48;16.40;99.90
12811;DHT22;6470;47.654;7.896;2022-09-03T20:44:32;15.70;99.90
12811;DHT22;6470;47.654;7.896;2022-09-03T20:55:35;15.80;99.90
12811;DHT22;6470;47.654;7.896;2022-09-03T20:58:25;15.60;99.90
12811;DHT22;6470;47.654;7.896;2022-09-03T21:01:04;16.80;99.90
12811;DHT22;6470;47.654;7.896;2022-09-03T21:12:50;16.40;99.90
12811;DHT22;6470;47.654;7.896;2022-09-03T21:18:37;15.70;99.90
12811;DHT22;6470;47.654;7.896;2022-09-03T21:21:46;15.80;99.90
12811;DHT22;6470;47.654;7.896;2022-09-03T21:24:22;15.50;99.90
12811;DHT22;6470;47.654;7.896;2022-09-03T21:26:52;15.50;99.90
12811;DHT22;6470;47.654;7.896;2022-09-03T21:34:30;16.50;99.90
12811;DHT22;6470;47.654;7.896;2022-09-03T21:36:58;16.20;99.90
12811;DHT22;6470;47.654;7.896;2022-09-03T21:44:54;16.00;99.90
12811;DHT22;6470;47.654;7.896;2022-09-03T21:47:22;15.50;99.90
12811;DHT22;6470;47.654;7.896;2022-09-03T21:50:19;15.50;99.90
12811;DHT22;6470;47.654;7.896;2022-09-03T21:52:57;16.10;99.90
12811;DHT22;6470;47.654;7.896;2022-09-03T21:58:13;15.40;99.90
12811;DHT22;6470;47.654;7.896;2022-09-03T22:00:44;16.20;99.90
12811;DHT22;6470;47.654;7.896;2022-09-03T22:03:10;16.10;99.90
12811;DHT22;6470;47.654;7.896;2022-09-03T22:05:56;16.40;99.90
12811;DHT22;6470;47.654;7.896;2022-09-03T22:14:15;15.80;99.90
12811;DHT22;6470;47.654;7.896;2022-09-03T22:16:57;15.10;99.90
12811;DHT22;6470;47.654;7.896;2022-09-03T22:19:27;15.80;99.90
12811;DHT22;6470;47.654;7.896;2022-09-03T22:21:56;11.90;99.90
12811;DHT22;6470;47.654;7.896;2022-09-03T22:24:46;15.90;99.90
12811;DHT22;6470;47.654;7.896;2022-09-03T22:27:31;15.80;99.90
12811;DHT22;6470;47.654;7.896;2022-09-03T22:30:16;12.50;99.90
12811;DHT22;6470;47.654;7.896;2022-09-03T22:41:25;15.60;99.90
12811;DHT22;6470;47.654;7.896;2022-09-03T22:58:10;15.20;99.90
12811;DHT22;6470;47.654;7.896;2022-09-03T23:00:41;16.00;99.90
12811;DHT22;6470;47.654;7.896;2022-09-03T23:03:15;12.10;99.90
12811;DHT22;6470;47.654;7.896;2022-09-03T23:05:58;15.60;99.90
12811;DHT22;6470;47.654;7.896;2022-09-03T23:08:34;14.60;99.90
12811;DHT22;6470;47.654;7.896;2022-09-03T23:11:18;16.20;99.90
12811;DHT22;6470;47.654;7.896;2022-09-03T23:14:01;15.90;99.90
12811;DHT22;6470;47.654;7.896;2022-09-03T23:16:49;14.50;99.90
12811;DHT22;6470;47.654;7.896;2022-09-03T23:19:36;15.90;99.90